createdAt,value
2023-10-10T00:00:24.972Z,98549.81
2023-10-10T00:02:52.585Z,98544.72
2023-10-10T00:05:20.097Z,98548.34
2023-10-10T00:07:47.870Z,98538.84
2023-10-10T00:10:14.558Z,98541.44
2023-10-10T00:12:41.116Z,98538.09
2023-10-10T00:15:13.755Z,98547.56
2023-10-10T00:17:42.118Z,98542.84
2023-10-10T00:20:18.102Z,98543.22
2023-10-10T00:22:48.663Z,98545.41
2023-10-10T00:25:25.152Z,98538.81
2023-10-10T00:27:57.673Z,98534.41
2023-10-10T00:30:24.149Z,98534.75
2023-10-10T00:32:51.975Z,98531.06
2023-10-10T00:35:19.086Z,98541.34
2023-10-10T00:37:46.320Z,98536.97
2023-10-10T00:40:18.785Z,98532.59
2023-10-10T00:42:45.182Z,98542.09
2023-10-10T00:45:13.748Z,98538.09
2023-10-10T00:47:50.650Z,98533.00
2023-10-10T00:50:26.179Z,98530.78
2023-10-10T00:52:54.474Z,98533.72
2023-10-10T00:55:28.832Z,98530.09
2023-10-10T00:58:00.157Z,98540.72
2023-10-10T01:00:30.565Z,98530.47
2023-10-10T01:03:07.956Z,98528.69
2023-10-10T01:05:53.287Z,98514.00
2023-10-10T01:08:20.831Z,98514.38
2023-10-10T01:10:50.912Z,98512.16
2023-10-10T01:13:18.396Z,98515.41
2023-10-10T01:15:44.838Z,98517.59
2023-10-10T01:18:14.992Z,98517.22
2023-10-10T01:20:47.877Z,98519.47
2023-10-10T01:23:20.034Z,98523.44
2023-10-10T01:25:48.659Z,98523.78
2023-10-10T01:28:24.967Z,98515.03
2023-10-10T01:30:58.876Z,98521.22
2023-10-10T01:33:48.503Z,98524.91
2023-10-10T01:36:30.833Z,98527.75
2023-10-10T01:38:57.682Z,98527.75
2023-10-10T01:41:25.785Z,98523.72
2023-10-10T01:43:55.180Z,98530.59
2023-10-10T01:46:30.961Z,98528.03
2023-10-10T01:48:58.338Z,98529.94
2023-10-10T01:51:34.351Z,98528.03
2023-10-10T01:54:04.996Z,98522.56
2023-10-10T01:56:31.464Z,98534.63
2023-10-10T01:58:57.881Z,98535.72
2023-10-10T02:01:28.428Z,98529.50
2023-10-10T02:03:55.213Z,98535.03
2023-10-10T02:06:29.482Z,98528.50
2023-10-10T02:09:13.309Z,98524.88
2023-10-10T02:11:50.755Z,98528.50
2023-10-10T02:14:20.050Z,98526.63
2023-10-10T02:16:49.518Z,98527.75
2023-10-10T02:19:26.100Z,98539.81
2023-10-10T02:22:04.686Z,98536.88
2023-10-10T02:24:31.116Z,98539.41
2023-10-10T02:26:57.874Z,98538.34
2023-10-10T02:29:30.325Z,98536.53
2023-10-10T02:32:10.222Z,98532.16
2023-10-10T02:34:37.712Z,98532.19
2023-10-10T02:37:19.534Z,98528.13
2023-10-10T02:39:57.486Z,98532.53
2023-10-10T02:42:24.820Z,98529.25
2023-10-10T02:44:58.486Z,98527.47
2023-10-10T02:47:32.415Z,98524.91
2023-10-10T02:50:13.728Z,98529.63
2023-10-10T02:52:40.405Z,98518.66
2023-10-10T02:55:15.277Z,98519.00
2023-10-10T02:57:42.738Z,98527.81
2023-10-10T03:00:38.559Z,98523.44
2023-10-10T03:03:05.392Z,98538.09
2023-10-10T03:05:41.419Z,98533.69
2023-10-10T03:08:19.093Z,98535.50
2023-10-10T03:10:55.603Z,98535.06
2023-10-10T03:13:29.968Z,98540.56
2023-10-10T03:15:57.591Z,98541.69
2023-10-10T03:18:31.404Z,98537.63
2023-10-10T03:21:13.340Z,98540.16
2023-10-10T03:23:54.275Z,98543.50
2023-10-10T03:26:36.621Z,98538.41
2023-10-10T03:29:11.281Z,98546.13
2023-10-10T03:31:43.395Z,98543.91
2023-10-10T03:34:20.814Z,98534.47
2023-10-10T03:37:05.666Z,98548.34
2023-10-10T03:39:50.861Z,98545.75
2023-10-10T03:42:35.728Z,98546.13
2023-10-10T03:45:20.518Z,98550.16
2023-10-10T03:48:05.390Z,98555.97
2023-10-10T03:50:50.548Z,98549.03
2023-10-10T03:53:35.654Z,98553.75
2023-10-10T03:56:22.906Z,98559.22
2023-10-10T03:59:08.327Z,98555.09
2023-10-10T04:01:53.676Z,98559.47
2023-10-10T04:04:38.511Z,98563.91
2023-10-10T04:07:23.404Z,98565.78
2023-10-10T04:10:08.298Z,98556.63
2023-10-10T04:12:53.187Z,98557.00
2023-10-10T04:15:37.928Z,98550.78
2023-10-10T04:18:23.186Z,98537.59
2023-10-10T04:21:08.023Z,98543.78
2023-10-10T04:23:52.992Z,98546.03
2023-10-10T04:26:37.757Z,98542.69
2023-10-10T04:29:22.816Z,98552.94
2023-10-10T04:32:07.845Z,98552.59
2023-10-10T04:34:52.800Z,98551.13
2023-10-10T04:37:37.704Z,98554.06
2023-10-10T04:40:23.136Z,98550.78
2023-10-10T04:43:08.036Z,98547.13
2023-10-10T04:45:52.826Z,98548.22
2023-10-10T04:48:37.734Z,98547.84
2023-10-10T04:51:22.584Z,98544.22
2023-10-10T04:54:07.717Z,98539.13
2023-10-10T04:57:00.283Z,98544.25
2023-10-10T04:59:45.330Z,98542.41
2023-10-10T05:02:30.158Z,98538.06
2023-10-10T05:05:15.533Z,98546.09
2023-10-10T05:08:00.438Z,98540.22
2023-10-10T05:10:45.358Z,98557.75
2023-10-10T05:13:30.219Z,98561.41
2023-10-10T05:16:21.576Z,98567.22
2023-10-10T05:19:06.510Z,98566.56
2023-10-10T05:21:51.405Z,98581.91
2023-10-10T05:24:22.110Z,98574.91
2023-10-10T05:26:48.688Z,98575.97
2023-10-10T05:29:20.546Z,98576.59
2023-10-10T05:31:48.498Z,98580.34
2023-10-10T05:34:17.775Z,98580.78
2023-10-10T05:36:45.977Z,98587.34
2023-10-10T05:39:18.793Z,98588.03
2023-10-10T05:41:45.819Z,98580.25
2023-10-10T05:44:15.948Z,98590.84
2023-10-10T05:46:42.555Z,98594.88
2023-10-10T05:49:09.333Z,98593.41
2023-10-10T05:51:36.364Z,98587.53
2023-10-10T05:54:02.840Z,98586.09
2023-10-10T05:56:31.158Z,98586.88
2023-10-10T05:58:57.909Z,98594.13
2023-10-10T06:01:24.949Z,98582.78
2023-10-10T06:06:19.616Z,98592.31
2023-10-10T06:08:46.616Z,98593.06
2023-10-10T06:11:15.715Z,98604.75
2023-10-10T06:13:45.014Z,98602.63
2023-10-10T06:16:14.675Z,98612.47
2023-10-10T06:18:46.243Z,98605.25
2023-10-10T06:21:13.743Z,98600.81
2023-10-10T06:23:43.177Z,98606.25
2023-10-10T06:26:10.319Z,98613.59
2023-10-10T06:28:37.411Z,98601.50
2023-10-10T06:31:04.483Z,98603.69
2023-10-10T06:33:31.651Z,98609.25
2023-10-10T06:36:24.580Z,98627.16
2023-10-10T06:39:07.239Z,98607.81
2023-10-10T06:41:37.714Z,98617.34
2023-10-10T06:44:14.914Z,98615.91
2023-10-10T06:46:42.556Z,98617.00
2023-10-10T06:49:12.985Z,98625.81
2023-10-10T06:51:42.394Z,98622.09
2023-10-10T06:54:21.240Z,98618.47
2023-10-10T06:57:09.033Z,98631.59
2023-10-10T06:59:36.614Z,98629.75
2023-10-10T07:02:15.243Z,98635.22
2023-10-10T07:04:42.085Z,98639.34
2023-10-10T07:07:10.443Z,98635.06
2023-10-10T07:09:43.428Z,98636.50
2023-10-10T07:12:14.994Z,98637.25
2023-10-10T07:14:55.184Z,98642.88
2023-10-10T07:17:28.191Z,98629.34
2023-10-10T07:20:03.772Z,98641.31
2023-10-10T07:22:35.147Z,98647.78
2023-10-10T07:25:09.660Z,98643.09
2023-10-10T07:27:40.946Z,98649.94
2023-10-10T07:30:14.920Z,98655.91
2023-10-10T07:32:44.009Z,98658.13
2023-10-10T07:35:16.061Z,98657.47
2023-10-10T07:37:46.753Z,98658.56
2023-10-10T07:40:17.638Z,98660.72
2023-10-10T07:42:51.486Z,98657.81
2023-10-10T07:45:27.719Z,98660.66
2023-10-10T07:48:00.317Z,98665.44
2023-10-10T07:50:28.213Z,98675.31
2023-10-10T07:52:55.307Z,98671.63
2023-10-10T07:55:23.732Z,98674.94
2023-10-10T07:58:08.242Z,98670.94
2023-10-10T08:00:38.933Z,98664.81
2023-10-10T08:03:08.482Z,98669.59
2023-10-10T08:05:35.133Z,98668.59
2023-10-10T08:08:06.525Z,98673.03
2023-10-10T08:10:44.472Z,98674.25
2023-10-10T08:13:15.375Z,98668.28
2023-10-10T08:15:57.484Z,98673.03
2023-10-10T08:18:43.666Z,98669.81
2023-10-10T08:21:12.233Z,98668.91
2023-10-10T08:23:44.166Z,98669.25
2023-10-10T08:26:19.315Z,98679.81
2023-10-10T08:28:46.831Z,98667.06
2023-10-10T08:31:16.322Z,98662.81
2023-10-10T08:33:46.174Z,98668.78
2023-10-10T08:36:30.839Z,98664.41
2023-10-10T08:38:59.257Z,98669.94
2023-10-10T08:41:31.153Z,98667.72
2023-10-10T08:44:02.677Z,98657.81
2023-10-10T08:46:31.943Z,98669.88
2023-10-10T08:49:00.538Z,98667.19
2023-10-10T08:51:34.906Z,98665.72
2023-10-10T08:54:11.721Z,98659.84
2023-10-10T08:56:42.011Z,98662.41
2023-10-10T08:59:09.867Z,98668.63
2023-10-10T09:01:39.482Z,98655.47
2023-10-10T09:04:07.030Z,98661.00
2023-10-10T09:06:59.197Z,98662.53
2023-10-10T09:09:39.141Z,98670.59
2023-10-10T09:12:13.794Z,98674.66
2023-10-10T09:14:51.344Z,98673.19
2023-10-10T09:17:29.840Z,98679.06
2023-10-10T09:19:58.279Z,98668.06
2023-10-10T09:22:44.220Z,98671.72
2023-10-10T09:25:22.338Z,98680.88
2023-10-10T09:27:59.904Z,98686.03
2023-10-10T09:30:41.914Z,98684.94
2023-10-10T09:33:23.525Z,98682.38
2023-10-10T09:36:00.287Z,98683.78
2023-10-10T09:38:47.922Z,98684.09
2023-10-10T09:41:37.915Z,98690.00
2023-10-10T09:44:24.548Z,98678.28
2023-10-10T09:47:03.104Z,98687.47
2023-10-10T09:49:50.303Z,98688.97
2023-10-10T09:52:38.776Z,98684.13
2023-10-10T09:55:29.959Z,98688.56
2023-10-10T09:58:09.012Z,98689.72
2023-10-10T10:00:40.816Z,98684.19
2023-10-10T10:03:29.019Z,98676.88
2023-10-10T10:06:08.178Z,98689.34
2023-10-10T10:08:45.867Z,98688.19
2023-10-10T10:11:20.170Z,98691.81
2023-10-10T10:14:12.533Z,98696.25
2023-10-10T10:16:59.261Z,98701.03
2023-10-10T10:19:29.628Z,98697.75
2023-10-10T10:22:09.700Z,98700.75
2023-10-10T10:24:48.184Z,98698.19
2023-10-10T10:27:32.930Z,98696.69
2023-10-10T10:30:19.603Z,98691.91
2023-10-10T10:32:50.489Z,98701.09
2023-10-10T10:35:25.183Z,98686.44
2023-10-10T10:38:00.895Z,98688.28
2023-10-10T10:40:40.508Z,98693.06
2023-10-10T10:43:16.562Z,98696.75
2023-10-10T10:45:52.248Z,98692.69
2023-10-10T10:48:32.362Z,98683.16
2023-10-10T10:51:07.276Z,98685.38
2023-10-10T10:53:40.238Z,98686.47
2023-10-10T10:56:30.245Z,98683.88
2023-10-10T10:59:22.601Z,98683.56
2023-10-10T11:01:56.426Z,98673.59
2023-10-10T11:04:40.954Z,98682.03
2023-10-10T11:07:10.962Z,98687.56
2023-10-10T11:09:54.297Z,98680.19
2023-10-10T11:12:32.456Z,98673.84
2023-10-10T11:15:05.854Z,98671.66
2023-10-10T11:17:39.278Z,98660.59
2023-10-10T11:20:28.784Z,98665.34
2023-10-10T11:22:56.655Z,98662.81
2023-10-10T11:25:42.436Z,98662.56
2023-10-10T11:28:22.984Z,98651.53
2023-10-10T11:30:54.221Z,98650.50
2023-10-10T11:33:47.338Z,98650.13
2023-10-10T11:36:39.442Z,98656.69
2023-10-10T11:39:34.951Z,98657.03
2023-10-10T11:42:05.624Z,98649.31
2023-10-10T11:44:34.571Z,98651.84
2023-10-10T11:47:08.291Z,98646.75
2023-10-10T11:49:34.879Z,98642.31
2023-10-10T11:52:01.372Z,98646.72
2023-10-10T11:54:29.046Z,98634.19
2023-10-10T11:56:55.517Z,98619.16
2023-10-10T11:59:22.421Z,98627.25
2023-10-10T12:01:51.603Z,98629.06
2023-10-10T12:04:33.933Z,98627.19
2023-10-10T12:07:05.358Z,98629.78
2023-10-10T12:09:33.177Z,98635.22
2023-10-10T12:12:05.771Z,98627.63
2023-10-10T12:14:33.743Z,98633.88
2023-10-10T12:17:01.208Z,98633.50
2023-10-10T12:19:34.288Z,98635.66
2023-10-10T12:22:08.887Z,98637.09
2023-10-10T12:24:36.682Z,98647.75
2023-10-10T12:27:08.083Z,98643.69
2023-10-10T12:29:41.469Z,98630.16
2023-10-10T12:32:20.737Z,98637.88
2023-10-10T12:34:48.418Z,98633.03
2023-10-10T12:37:18.254Z,98634.53
2023-10-10T12:39:46.031Z,98635.25
2023-10-10T12:42:12.627Z,98628.66
2023-10-10T12:44:39.085Z,98625.34
2023-10-10T12:47:07.884Z,98631.56
2023-10-10T12:49:37.898Z,98625.38
2023-10-10T12:52:13.029Z,98626.47
2023-10-10T12:54:39.739Z,98617.28
2023-10-10T12:57:14.836Z,98615.78
2023-10-10T12:59:47.192Z,98620.22
2023-10-10T13:02:16.546Z,98614.34
2023-10-10T13:04:47.822Z,98606.28
2023-10-10T13:07:17.290Z,98615.41
2023-10-10T13:09:44.601Z,98614.63
2023-10-10T13:12:19.493Z,98610.53
2023-10-10T13:14:51.801Z,98606.03
2023-10-10T13:17:38.806Z,98598.31
2023-10-10T13:20:06.269Z,98597.84
2023-10-10T13:22:32.798Z,98599.63
2023-10-10T13:24:59.316Z,98601.75
2023-10-10T13:27:26.652Z,98598.06
2023-10-10T13:29:53.238Z,98602.47
2023-10-10T13:32:21.496Z,98584.09
2023-10-10T13:34:48.233Z,98586.97
2023-10-10T13:37:14.846Z,98594.25
2023-10-10T13:39:45.059Z,98581.81
2023-10-10T13:42:15.650Z,98588.00
2023-10-10T13:44:43.003Z,98585.84
2023-10-10T13:47:09.926Z,98581.88
2023-10-10T13:49:45.233Z,98580.41
2023-10-10T13:52:17.539Z,98576.75
2023-10-10T13:54:44.021Z,98578.50
2023-10-10T13:57:11.312Z,98578.16
2023-10-10T13:59:37.967Z,98578.94
2023-10-10T14:02:05.691Z,98585.88
2023-10-10T14:04:46.859Z,98583.00
2023-10-10T14:07:15.621Z,98584.03
2023-10-10T14:09:59.687Z,98582.88
2023-10-10T14:12:32.851Z,98583.88
2023-10-10T14:15:00.422Z,98575.38
2023-10-10T14:17:26.953Z,98575.03
2023-10-10T14:19:53.612Z,98577.25
2023-10-10T14:22:25.143Z,98575.78
2023-10-10T14:24:53.681Z,98568.13
2023-10-10T14:27:21.277Z,98560.41
2023-10-10T14:29:49.085Z,98562.59
2023-10-10T14:32:30.871Z,98554.16
2023-10-10T14:35:01.905Z,98552.38
2023-10-10T14:37:41.912Z,98560.06
2023-10-10T14:40:16.821Z,98557.91
2023-10-10T14:42:43.686Z,98559.31
2023-10-10T14:45:10.435Z,98558.28
2023-10-10T14:47:40.488Z,98557.25
2023-10-10T14:50:11.832Z,98564.97
2023-10-10T14:52:41.426Z,98563.88
2023-10-10T14:55:25.076Z,98557.28
2023-10-10T14:57:56.188Z,98557.72
2023-10-10T15:00:29.301Z,98553.66
2023-10-10T15:02:57.065Z,98551.81
2023-10-10T15:05:27.569Z,98550.72
2023-10-10T15:07:55.473Z,98550.72
2023-10-10T15:10:27.415Z,98548.91
2023-10-10T15:12:54.789Z,98556.31
2023-10-10T15:15:23.818Z,98548.63
2023-10-10T15:17:51.138Z,98553.44
2023-10-10T15:20:17.733Z,98547.56
2023-10-10T15:22:44.146Z,98546.13
2023-10-10T15:25:11.923Z,98546.16
2023-10-10T15:27:42.071Z,98547.66
2023-10-10T15:30:10.108Z,98544.75
2023-10-10T15:32:48.081Z,98538.59
2023-10-10T15:35:16.589Z,98548.16
2023-10-10T15:37:45.871Z,98543.06
2023-10-10T15:40:21.701Z,98550.81
2023-10-10T15:42:50.300Z,98549.00
2023-10-10T15:45:22.773Z,98550.53
2023-10-10T15:47:50.468Z,98552.38
2023-10-10T15:50:17.943Z,98540.31
2023-10-10T15:52:49.763Z,98544.00
2023-10-10T15:55:20.305Z,98541.78
2023-10-10T15:57:47.270Z,98534.47
2023-10-10T16:00:16.766Z,98538.53
2023-10-10T16:02:43.316Z,98541.47
2023-10-10T16:05:09.971Z,98548.47
2023-10-10T16:07:36.396Z,98540.41
2023-10-10T16:10:08.945Z,98540.47
2023-10-10T16:12:35.391Z,98543.00
2023-10-10T16:15:01.949Z,98540.09
2023-10-10T16:17:29.737Z,98543.41
2023-10-10T16:19:56.755Z,98544.53
2023-10-10T16:22:23.187Z,98544.53
2023-10-10T16:24:53.574Z,98542.66
2023-10-10T16:27:22.789Z,98549.66
2023-10-10T16:29:49.358Z,98546.72
2023-10-10T16:32:19.383Z,98543.06
2023-10-10T16:34:46.169Z,98551.88
2023-10-10T16:37:15.757Z,98550.41
2023-10-10T16:39:46.790Z,98551.88
2023-10-10T16:42:15.270Z,98546.00
2023-10-10T16:44:41.792Z,98549.28
2023-10-10T16:47:09.322Z,98553.34
2023-10-10T16:49:38.429Z,98556.63
2023-10-10T16:52:07.113Z,98551.13
2023-10-10T16:54:34.833Z,98557.72
2023-10-10T16:57:01.398Z,98560.28
2023-10-10T16:59:27.954Z,98552.59
2023-10-10T17:01:54.579Z,98547.09
2023-10-10T17:04:21.209Z,98547.13
2023-10-10T17:06:49.923Z,98548.97
2023-10-10T17:09:16.860Z,98555.19
2023-10-10T17:11:43.664Z,98548.59
2023-10-10T17:14:13.376Z,98544.91
2023-10-10T17:16:40.809Z,98534.28
2023-10-10T17:19:17.011Z,98543.81
2023-10-10T17:21:47.671Z,98542.34
2023-10-10T17:24:20.865Z,98540.88
2023-10-10T17:26:47.533Z,98542.72
2023-10-10T17:29:14.284Z,98540.16
2023-10-10T17:31:41.212Z,98547.50
2023-10-10T17:34:07.880Z,98544.91
2023-10-10T17:36:36.907Z,98543.78
2023-10-10T17:39:05.141Z,98534.66
2023-10-10T17:41:36.107Z,98541.59
2023-10-10T17:44:10.319Z,98538.69
2023-10-10T17:46:37.272Z,98540.47
2023-10-10T17:49:05.916Z,98539.06
2023-10-10T17:51:35.968Z,98536.47
2023-10-10T17:54:03.664Z,98533.91
2023-10-10T17:56:30.503Z,98532.44
2023-10-10T17:58:56.978Z,98526.94
2023-10-10T18:01:23.741Z,98526.97
2023-10-10T18:03:55.874Z,98528.06
2023-10-10T18:06:24.671Z,98528.03
2023-10-10T18:08:55.599Z,98518.16
2023-10-10T18:11:27.072Z,98518.16
2023-10-10T18:13:53.973Z,98521.47
2023-10-10T18:16:22.932Z,98521.47
2023-10-10T18:18:51.361Z,98514.50
2023-10-10T18:21:20.668Z,98514.13
2023-10-10T18:23:47.798Z,98519.25
2023-10-10T18:26:16.551Z,98523.25
2023-10-10T18:28:43.524Z,98515.56
2023-10-10T18:31:14.327Z,98523.66
2023-10-10T18:33:42.340Z,98518.88
2023-10-10T18:36:12.168Z,98516.31
2023-10-10T18:38:39.411Z,98516.69
2023-10-10T18:41:06.135Z,98515.22
2023-10-10T18:43:33.062Z,98515.94
2023-10-10T18:46:01.744Z,98509.31
2023-10-10T18:48:28.917Z,98516.69
2023-10-10T18:50:58.313Z,98512.63
2023-10-10T18:53:27.222Z,98514.09
2023-10-10T18:55:56.040Z,98517.00
2023-10-10T18:58:23.743Z,98511.56
2023-10-10T19:00:52.427Z,98506.03
2023-10-10T19:03:19.879Z,98500.53
2023-10-10T19:05:51.637Z,98503.47
2023-10-10T19:08:18.954Z,98506.38
2023-10-10T19:10:51.810Z,98500.91
2023-10-10T19:13:18.892Z,98500.53
2023-10-10T19:15:48.644Z,98497.97
2023-10-10T19:18:17.045Z,98500.91
2023-10-10T19:20:47.563Z,98487.34
2023-10-10T19:23:15.802Z,98494.69
2023-10-10T19:25:48.559Z,98478.56
2023-10-10T19:28:16.890Z,98483.72
2023-10-10T19:30:43.741Z,98484.78
2023-10-10T19:33:10.594Z,98476.75
2023-10-10T19:35:44.484Z,98475.63
2023-10-10T19:38:12.201Z,98469.41
2023-10-10T19:40:38.712Z,98463.91
2023-10-10T19:43:05.147Z,98460.63
2023-10-10T19:45:31.683Z,98458.78
2023-10-10T19:48:03.772Z,98463.91
2023-10-10T19:50:31.975Z,98457.69
2023-10-10T19:52:58.753Z,98456.59
2023-10-10T19:55:25.737Z,98451.44
2023-10-10T19:57:52.185Z,98447.44
2023-10-10T20:00:21.307Z,98443.00
2023-10-10T20:02:48.931Z,98452.56
2023-10-10T20:05:15.856Z,98446.34
2023-10-10T20:07:42.352Z,98440.81
2023-10-10T20:10:16.323Z,98438.63
2023-10-10T20:13:06.504Z,98432.41
2023-10-10T20:15:40.685Z,98435.72
2023-10-10T20:18:16.330Z,98430.94
2023-10-10T20:20:43.024Z,98426.56
2023-10-10T20:23:10.663Z,98422.88
2023-10-10T20:25:42.326Z,98422.16
2023-10-10T20:28:10.279Z,98429.13
2023-10-10T20:30:42.202Z,98426.56
2023-10-10T20:33:15.858Z,98421.44
2023-10-10T20:35:46.676Z,98413.75
2023-10-10T20:38:13.692Z,98414.09
2023-10-10T20:40:44.456Z,98426.19
2023-10-10T20:43:11.304Z,98416.66
2023-10-10T20:45:38.265Z,98423.63
2023-10-10T20:48:10.715Z,98416.66
2023-10-10T20:50:42.528Z,98420.34
2023-10-10T20:53:09.374Z,98412.66
2023-10-10T20:55:36.213Z,98414.81
2023-10-10T20:58:02.793Z,98407.50
2023-10-10T21:00:32.221Z,98408.97
2023-10-10T21:03:02.188Z,98406.41
2023-10-10T21:05:29.043Z,98406.03
2023-10-10T21:07:58.138Z,98400.19
2023-10-10T21:10:25.013Z,98398.34
2023-10-10T21:12:51.503Z,98401.63
2023-10-10T21:15:19.076Z,98398.00
2023-10-10T21:17:50.027Z,98393.59
2023-10-10T21:20:26.039Z,98393.56
2023-10-10T21:22:53.735Z,98392.81
2023-10-10T21:25:21.858Z,98393.56
2023-10-10T21:27:58.491Z,98382.53
2023-10-10T21:30:29.766Z,98390.59
2023-10-10T21:32:57.633Z,98400.13
2023-10-10T21:35:31.059Z,98401.59
2023-10-10T21:37:59.805Z,98401.19
2023-10-10T21:40:27.008Z,98403.75
2023-10-10T21:42:54.772Z,98408.16
2023-10-10T21:45:23.327Z,98400.81
2023-10-10T21:47:51.884Z,98395.69
2023-10-10T21:50:19.318Z,98392.03
2023-10-10T21:52:47.105Z,98400.81
2023-10-10T21:55:18.042Z,98398.22
2023-10-10T21:57:49.728Z,98400.06
2023-10-10T22:00:17.542Z,98397.88
2023-10-10T22:02:49.593Z,98389.81
2023-10-10T22:05:17.516Z,98388.34
2023-10-10T22:07:44.854Z,98382.88
2023-10-10T22:10:15.053Z,98378.09
2023-10-10T22:12:44.964Z,98383.59
2023-10-10T22:15:12.005Z,98382.50
2023-10-10T22:17:44.177Z,98383.94
2023-10-10T22:20:12.562Z,98385.81
2023-10-10T22:22:40.429Z,98396.44
2023-10-10T22:25:29.037Z,98384.38
2023-10-10T22:27:57.660Z,98388.03
2023-10-10T22:30:27.941Z,98376.69
2023-10-10T22:32:55.952Z,98380.38
2023-10-10T22:35:23.185Z,98379.31
2023-10-10T22:37:51.708Z,98374.91
2023-10-10T22:40:25.828Z,98367.97
2023-10-10T22:43:05.343Z,98365.75
2023-10-10T22:45:34.242Z,98354.75
2023-10-10T22:48:02.370Z,98346.34
2023-10-10T22:50:31.741Z,98351.47
2023-10-10T22:53:00.641Z,98344.88
2023-10-10T22:55:29.508Z,98348.53
2023-10-10T22:57:57.587Z,98355.16
2023-10-10T23:00:37.520Z,98369.78
2023-10-10T23:03:06.759Z,98367.94
2023-10-10T23:05:34.489Z,98363.94
2023-10-10T23:08:02.646Z,98364.31
2023-10-10T23:10:30.687Z,98366.50
2023-10-10T23:12:57.774Z,98362.09
2023-10-10T23:15:30.196Z,98352.22
2023-10-10T23:18:01.933Z,98354.75
2023-10-10T23:20:30.520Z,98356.59
2023-10-10T23:22:59.945Z,98359.16
2023-10-10T23:25:27.280Z,98356.97
2023-10-10T23:27:57.697Z,98355.13
2023-10-10T23:30:30.941Z,98362.47
2023-10-10T23:32:58.572Z,98361.34
2023-10-10T23:35:27.761Z,98357.31
2023-10-10T23:38:01.721Z,98361.34
2023-10-10T23:40:48.957Z,98357.69
2023-10-10T23:43:25.181Z,98362.44
2023-10-10T23:46:00.724Z,98363.88
2023-10-10T23:48:30.568Z,98370.44
2023-10-10T23:50:59.269Z,98370.81
2023-10-10T23:53:25.855Z,98367.50
2023-10-10T23:55:56.096Z,98366.06
2023-10-10T23:58:26.057Z,98367.50
